Time;durP1;ratioP1;P1;durP2;ratioP2;P2;SDS_P1;SDS_P2;PMS_P1;PMS_P2;Temp;Humidity;BMP_temperature;BMP_pressure;BME280_temperature;BME280_humidity;BME280_pressure;Samples;Min_cycle;Max_cycle;Signal;HPM_P1;HPM_P2
2024/01/12 00:04:26;;;;;;;49.17;26.33;;;;;0.50;102793.00;;;;9743677;30;20268;-82
2024/01/12 00:09:29;;;;;;;47.73;23.87;;;;;0.60;102796.00;;;;9737785;30;20257;-82
2024/01/12 00:14:30;;;;;;;47.07;25.80;;;;;0.60;102798.00;;;;9745717;30;20232;-82
2024/01/12 00:19:31;;;;;;;49.30;24.93;;;;;0.60;102808.00;;;;9765389;30;20233;-82
2024/01/12 00:24:32;;;;;;;46.73;24.60;;;;;0.60;102798.00;;;;9737186;30;20885;-81
2024/01/12 00:29:33;;;;;;;47.23;24.47;;;;;0.70;102788.00;;;;9752354;30;20233;-82
2024/01/12 00:34:34;;;;;;;54.50;24.93;;;;;0.70;102798.00;;;;9753604;30;20233;-81
2024/01/12 00:39:36;;;;;;;47.27;24.77;;;;;0.70;102798.00;;;;9732871;30;20234;-81
2024/01/12 00:44:37;;;;;;;43.00;22.20;;;;;0.60;102793.00;;;;9759989;30;20241;-82
2024/01/12 00:49:38;;;;;;;47.80;23.57;;;;;0.60;102799.00;;;;9752286;30;20255;-81
2024/01/12 00:54:40;;;;;;;42.47;24.57;;;;;0.60;102805.00;;;;9741743;30;20686;-82
2024/01/12 00:59:41;;;;;;;51.30;24.80;;;;;0.60;102806.00;;;;9744859;30;20348;-83
2024/01/12 01:04:42;;;;;;;49.63;24.37;;;;;0.60;102797.00;;;;9770486;30;22040;-79
2024/01/12 01:09:43;;;;;;;51.87;26.13;;;;;0.60;102799.00;;;;9751418;30;20285;-79
2024/01/12 01:14:44;;;;;;;55.10;27.87;;;;;0.60;102812.00;;;;9771610;30;20332;-79
2024/01/12 01:19:45;;;;;;;54.40;26.70;;;;;0.60;102808.00;;;;9736834;30;20241;-79
2024/01/12 01:24:46;;;;;;;50.27;27.87;;;;;0.60;102813.00;;;;9749895;30;20245;-79
2024/01/12 01:29:47;;;;;;;48.60;26.10;;;;;0.60;102811.00;;;;9763646;30;20830;-80
2024/01/12 01:34:49;;;;;;;55.07;28.63;;;;;0.60;102809.00;;;;9761570;30;20280;-80
2024/01/12 01:39:51;;;;;;;57.73;29.03;;;;;0.60;102810.00;;;;9778972;30;20233;-80
2024/01/12 01:44:54;;;;;;;60.47;29.30;;;;;0.60;102813.00;;;;9764107;30;20295;-80
2024/01/12 01:49:56;;;;;;;52.83;29.03;;;;;0.60;102816.00;;;;9774833;30;20950;-79
2024/01/12 01:54:58;;;;;;;57.67;30.57;;;;;0.70;102826.00;;;;9765522;30;20233;-79
2024/01/12 01:59:59;;;;;;;56.00;29.27;;;;;0.60;102824.00;;;;9779835;30;20420;-80
2024/01/12 02:05:03;;;;;;;54.53;29.67;;;;;0.70;102829.00;;;;9807728;30;20296;-85
2024/01/12 02:10:06;;;;;;;52.67;29.30;;;;;0.60;102834.00;;;;9753311;30;20708;-85
2024/01/12 02:15:09;;;;;;;59.63;30.33;;;;;0.70;102833.00;;;;9764983;30;20238;-84
2024/01/12 02:20:11;;;;;;;51.00;28.23;;;;;0.70;102821.00;;;;9768700;30;20304;-85
2024/01/12 02:25:14;;;;;;;51.67;29.03;;;;;0.70;102827.00;;;;9754432;30;20229;-85
2024/01/12 02:30:16;;;;;;;56.67;28.57;;;;;0.60;102823.00;;;;9767488;30;20268;-85
2024/01/12 02:35:17;;;;;;;55.07;30.60;;;;;0.70;102818.00;;;;9770233;30;20296;-85
2024/01/12 02:40:19;;;;;;;60.90;30.50;;;;;0.70;102829.00;;;;9757250;30;20241;-84
2024/01/12 02:45:20;;;;;;;51.37;27.67;;;;;0.70;102826.00;;;;9778882;30;20336;-84
2024/01/12 02:50:22;;;;;;;53.97;29.10;;;;;0.70;102813.00;;;;9759008;30;20987;-86
2024/01/12 02:55:24;;;;;;;56.27;29.40;;;;;0.70;102820.00;;;;9746322;30;20292;-85
2024/01/12 03:00:25;;;;;;;54.37;28.77;;;;;0.70;102795.00;;;;9746518;30;20261;-85
2024/01/12 03:05:26;;;;;;;52.73;29.60;;;;;0.70;102792.00;;;;9750500;30;20241;-85
2024/01/12 03:10:27;;;;;;;58.27;28.83;;;;;0.70;102784.00;;;;9771008;30;20795;-84
2024/01/12 03:15:28;;;;;;;58.27;30.60;;;;;0.70;102777.00;;;;9750729;30;20241;-84
2024/01/12 03:20:29;;;;;;;59.00;30.27;;;;;0.70;102776.00;;;;9754014;30;20245;-84
2024/01/12 03:25:31;;;;;;;59.60;30.00;;;;;0.80;102785.00;;;;9776331;30;20324;-84
2024/01/12 03:30:33;;;;;;;52.03;27.53;;;;;0.80;102775.00;;;;9757539;30;20349;-84
2024/01/12 03:35:37;;;;;;;53.67;29.30;;;;;0.80;102776.00;;;;9739277;30;20953;-83
2024/01/12 03:40:39;;;;;;;52.47;26.77;;;;;0.80;102780.00;;;;9766280;30;20240;-84
2024/01/12 03:45:40;;;;;;;48.43;26.73;;;;;0.80;102767.00;;;;9741504;30;20232;-84
2024/01/12 03:50:41;;;;;;;51.07;25.37;;;;;0.80;102765.00;;;;9753125;30;20238;-84
2024/01/12 03:55:42;;;;;;;53.23;26.37;;;;;0.80;102771.00;;;;9752783;30;20244;-84
2024/01/12 04:00:43;;;;;;;44.77;24.73;;;;;0.90;102775.00;;;;9757142;30;20818;-85
2024/01/12 04:05:45;;;;;;;51.37;22.10;;;;;0.90;102790.00;;;;9752972;30;20242;-84
2024/01/12 04:10:46;;;;;;;46.23;21.43;;;;;1.00;102773.00;;;;9756667;30;20229;-84
2024/01/12 04:15:47;;;;;;;40.10;20.87;;;;;1.00;102770.00;;;;9749420;30;20264;-84
2024/01/12 04:20:48;;;;;;;49.93;22.43;;;;;1.10;102775.00;;;;9751745;30;20236;-84
2024/01/12 04:25:49;;;;;;;47.27;19.90;;;;;1.20;102769.00;;;;9762021;30;20238;-84
2024/01/12 04:30:51;;;;;;;48.30;20.20;;;;;1.20;102770.00;;;;9766761;30;20689;-80
2024/01/12 04:35:52;;;;;;;47.87;20.37;;;;;1.30;102772.00;;;;9758767;30;20233;-80
2024/01/12 04:40:54;;;;;;;44.77;21.77;;;;;1.30;102768.00;;;;9781297;30;20716;-81
2024/01/12 04:45:55;;;;;;;47.33;20.63;;;;;1.30;102762.00;;;;9754978;30;20234;-82
2024/01/12 04:50:56;;;;;;;43.17;19.17;;;;;1.30;102757.00;;;;9770313;30;20336;-80
2024/01/12 04:55:58;;;;;;;38.07;18.27;;;;;1.30;102756.00;;;;9763252;30;20838;-80
2024/01/12 05:00:59;;;;;;;35.13;16.57;;;;;1.40;102769.00;;;;9769553;30;20256;-80
2024/01/12 05:06:01;;;;;;;51.77;20.27;;;;;1.40;102751.00;;;;9762502;30;20237;-79
2024/01/12 05:11:03;;;;;;;43.03;19.87;;;;;1.40;102765.00;;;;9764656;30;20697;-80
2024/01/12 05:16:04;;;;;;;34.97;18.97;;;;;1.40;102769.00;;;;9773882;30;20315;-79
2024/01/12 05:21:05;;;;;;;36.80;17.93;;;;;1.40;102767.00;;;;9754019;30;20229;-80
2024/01/12 05:26:07;;;;;;;31.67;16.97;;;;;1.40;102768.00;;;;9763751;30;20265;-81
2024/01/12 05:31:11;;;;;;;41.57;17.77;;;;;1.40;102777.00;;;;9762681;30;20307;-79
2024/01/12 05:36:12;;;;;;;43.40;18.83;;;;;1.40;102783.00;;;;9757537;30;20261;-80
2024/01/12 05:41:14;;;;;;;38.20;19.13;;;;;1.40;102786.00;;;;9769050;30;20299;-85
2024/01/12 05:46:15;;;;;;;37.60;17.47;;;;;1.40;102793.00;;;;9762899;30;20265;-84
2024/01/12 05:51:16;;;;;;;48.57;17.70;;;;;1.50;102790.00;;;;9765169;30;20322;-84
2024/01/12 05:56:18;;;;;;;46.00;18.20;;;;;1.50;102799.00;;;;9737268;30;20264;-85
2024/01/12 06:01:19;;;;;;;42.63;17.03;;;;;1.50;102800.00;;;;9738599;30;20255;-86
2024/01/12 06:06:20;;;;;;;35.40;17.17;;;;;1.50;102794.00;;;;9771854;30;20517;-85
2024/01/12 06:11:21;;;;;;;39.27;17.90;;;;;1.50;102791.00;;;;9740682;30;20240;-84
2024/01/12 06:16:22;;;;;;;34.67;15.10;;;;;1.50;102787.00;;;;9761265;30;20273;-84
2024/01/12 06:21:23;;;;;;;36.00;14.30;;;;;1.50;102773.00;;;;9756252;30;20256;-85
2024/01/12 06:26:25;;;;;;;39.73;15.37;;;;;1.50;102775.00;;;;9750099;30;20234;-86
2024/01/12 06:31:31;;;;;;;36.60;15.73;;;;;1.50;102779.00;;;;9779556;30;20320;-85
2024/01/12 06:36:32;;;;;;;35.83;14.00;;;;;1.40;102790.00;;;;9726423;30;20249;-84
2024/01/12 06:41:33;;;;;;;28.73;13.93;;;;;1.50;102790.00;;;;9741020;30;20241;-86
2024/01/12 06:46:35;;;;;;;41.73;15.70;;;;;1.50;102805.00;;;;9765007;30;20286;-86
2024/01/12 06:51:36;;;;;;;29.30;14.93;;;;;1.60;102796.00;;;;9762981;30;20239;-79
2024/01/12 06:56:38;;;;;;;33.10;15.20;;;;;1.60;102800.00;;;;9766943;30;20374;-79
2024/01/12 07:01:40;;;;;;;37.07;15.07;;;;;1.60;102803.00;;;;9751906;30;20240;-82
2024/01/12 07:06:41;;;;;;;29.67;14.33;;;;;1.60;102814.00;;;;9762986;30;20272;-79
2024/01/12 07:11:43;;;;;;;37.17;14.87;;;;;1.60;102829.00;;;;9750112;30;20233;-78
2024/01/12 07:16:44;;;;;;;33.17;14.23;;;;;1.60;102831.00;;;;9783147;30;20257;-78
2024/01/12 07:21:45;;;;;;;36.07;16.53;;;;;1.60;102838.00;;;;9736652;30;20246;-79
2024/01/12 07:26:47;;;;;;;36.30;14.53;;;;;1.60;102837.00;;;;9751051;30;20238;-78
2024/01/12 07:31:51;;;;;;;38.33;15.57;;;;;1.60;102846.00;;;;9756936;30;20685;-81
2024/01/12 07:36:52;;;;;;;33.27;15.23;;;;;1.60;102853.00;;;;9771620;30;20259;-81
2024/01/12 07:41:54;;;;;;;35.77;16.77;;;;;1.60;102849.00;;;;9751152;30;20682;-81
2024/01/12 07:46:56;;;;;;;35.37;16.80;;;;;1.70;102847.00;;;;9752561;30;20325;-80
2024/01/12 07:51:57;;;;;;;36.93;16.27;;;;;1.70;102851.00;;;;9772040;30;20238;-79
2024/01/12 07:56:58;;;;;;;42.10;15.80;;;;;1.70;102848.00;;;;9749979;30;20253;-79
2024/01/12 08:02:01;;;;;;;32.77;15.87;;;;;1.70;102852.00;;;;9744162;30;20233;-79
2024/01/12 08:07:03;;;;;;;38.97;16.17;;;;;1.70;102854.00;;;;9732019;30;20234;-80
2024/01/12 08:12:05;;;;;;;33.37;17.40;;;;;1.70;102854.00;;;;9756450;30;20358;-79
2024/01/12 08:17:07;;;;;;;36.47;16.27;;;;;1.70;102859.00;;;;9765390;30;20244;-79
2024/01/12 08:22:08;;;;;;;35.23;18.20;;;;;1.70;102845.00;;;;9749010;30;20658;-79
2024/01/12 08:27:09;;;;;;;49.60;18.30;;;;;1.80;102839.00;;;;9749020;30;20236;-80
2024/01/12 08:32:10;;;;;;;40.20;17.47;;;;;1.90;102830.00;;;;9759387;30;20260;-80
2024/01/12 08:37:11;;;;;;;40.33;17.80;;;;;2.00;102840.00;;;;9760804;30;20261;-77
2024/01/12 08:42:12;;;;;;;34.27;16.30;;;;;2.00;102831.00;;;;9749385;30;20319;-77
2024/01/12 08:47:14;;;;;;;40.47;17.03;;;;;2.00;102839.00;;;;9750946;30;20675;-78
2024/01/12 08:52:15;;;;;;;37.53;17.50;;;;;2.10;102839.00;;;;9749188;30;20233;-79
2024/01/12 08:57:16;;;;;;;39.13;17.83;;;;;2.10;102834.00;;;;9749489;30;20290;-77
2024/01/12 09:02:17;;;;;;;37.03;18.17;;;;;2.20;102851.00;;;;9775367;30;20350;-78
2024/01/12 09:07:18;;;;;;;33.33;16.57;;;;;2.20;102839.00;;;;9765437;30;20238;-77
2024/01/12 09:12:20;;;;;;;44.47;17.07;;;;;2.30;102845.00;;;;9746860;30;20300;-83
2024/01/12 09:17:21;;;;;;;35.77;15.70;;;;;2.30;102843.00;;;;9753175;30;20361;-83
2024/01/12 09:22:22;;;;;;;37.60;16.77;;;;;2.40;102859.00;;;;9746456;30;20250;-83
2024/01/12 09:27:23;;;;;;;33.80;15.67;;;;;2.50;102848.00;;;;9759195;30;20731;-83
2024/01/12 09:32:24;;;;;;;35.53;16.17;;;;;2.50;102856.00;;;;9744435;30;20233;-83
2024/01/12 09:37:26;;;;;;;31.97;16.07;;;;;2.50;102859.00;;;;9759653;30;21085;-84
2024/01/12 09:42:31;;;;;;;40.53;16.17;;;;;2.50;102864.00;;;;9763854;30;20248;-84
2024/01/12 09:47:35;;;;;;;36.33;15.83;;;;;2.60;102870.00;;;;9752670;30;20271;-81
2024/01/12 09:52:36;;;;;;;30.37;15.90;;;;;2.60;102878.00;;;;9740903;30;20256;-85
2024/01/12 09:57:39;;;;;;;38.07;17.83;;;;;2.70;102869.00;;;;9745674;30;20245;-82
2024/01/12 10:02:40;;;;;;;43.60;17.60;;;;;2.80;102869.00;;;;9742009;30;21043;-82
2024/01/12 10:07:41;;;;;;;35.43;17.10;;;;;2.80;102875.00;;;;9753020;30;20233;-81
2024/01/12 10:12:48;;;;;;;37.83;15.90;;;;;2.80;102872.00;;;;9757456;30;20295;-81
2024/01/12 10:17:51;;;;;;;39.10;17.47;;;;;2.80;102869.00;;;;9745297;30;20260;-82
2024/01/12 10:22:56;;;;;;;34.47;15.73;;;;;2.90;102880.00;;;;9748546;30;20330;-78
2024/01/12 10:27:58;;;;;;;34.30;16.43;;;;;2.90;102871.00;;;;9758083;30;20245;-79
2024/01/12 10:33:01;;;;;;;31.97;15.67;;;;;2.90;102874.00;;;;9726520;30;20313;-77
2024/01/12 10:38:03;;;;;;;36.67;18.00;;;;;3.00;102864.00;;;;9732756;30;20253;-78
2024/01/12 10:43:05;;;;;;;30.43;16.47;;;;;3.00;102863.00;;;;9780638;30;20241;-77
2024/01/12 10:48:10;;;;;;;32.87;16.63;;;;;3.00;102857.00;;;;9751154;30;20238;-78
2024/01/12 10:53:20;;;;;;;29.70;15.77;;;;;3.00;102860.00;;;;9764920;30;20252;-79
2024/01/12 10:58:22;;;;;;;37.57;16.87;;;;;3.20;102859.00;;;;9758533;30;20244;-79
2024/01/12 11:03:25;;;;;;;32.40;15.80;;;;;3.20;102852.00;;;;9764509;30;20967;-77
2024/01/12 11:08:28;;;;;;;31.33;16.23;;;;;3.30;102850.00;;;;9750414;30;20242;-76
2024/01/12 11:13:30;;;;;;;33.17;16.27;;;;;3.30;102840.00;;;;9768685;30;20234;-76
2024/01/12 11:18:33;;;;;;;35.97;17.20;;;;;3.40;102829.00;;;;9769266;30;20240;-78
2024/01/12 11:23:41;;;;;;;38.37;17.90;;;;;3.60;102828.00;;;;9763918;30;20318;-78
2024/01/12 11:28:42;;;;;;;34.70;18.00;;;;;3.70;102830.00;;;;9758896;30;20225;-78
2024/01/12 11:33:45;;;;;;;39.50;17.60;;;;;3.70;102837.00;;;;9771910;30;20232;-83
2024/01/12 11:38:48;;;;;;;35.33;17.37;;;;;3.80;102825.00;;;;9753494;30;20235;-82
2024/01/12 11:43:50;;;;;;;40.40;16.23;;;;;3.80;102822.00;;;;9761129;30;20233;-83
2024/01/12 11:48:53;;;;;;;33.63;15.83;;;;;3.90;102819.00;;;;9747195;30;20253;-81
2024/01/12 11:53:57;;;;;;;37.13;15.50;;;;;3.90;102813.00;;;;9742952;30;20608;-81
2024/01/12 11:58:59;;;;;;;34.77;14.97;;;;;4.00;102795.00;;;;9769237;30;20253;-82
2024/01/12 12:04:01;;;;;;;34.07;16.10;;;;;4.20;102791.00;;;;9726713;30;20242;-82
2024/01/12 12:09:03;;;;;;;32.57;16.97;;;;;4.30;102779.00;;;;9755923;30;20253;-82
2024/01/12 12:14:04;;;;;;;28.23;14.67;;;;;4.40;102770.00;;;;9735455;30;20238;-83
2024/01/12 12:19:06;;;;;;;29.30;15.37;;;;;4.40;102772.00;;;;9751015;30;20229;-82
2024/01/12 12:24:07;;;;;;;34.53;15.30;;;;;4.50;102778.00;;;;9756032;30;20234;-81
2024/01/12 12:29:10;;;;;;;27.67;14.70;;;;;4.30;102781.00;;;;9759343;30;20303;-82
2024/01/12 12:34:11;;;;;;;34.07;14.30;;;;;4.20;102764.00;;;;9738180;30;20241;-82
2024/01/12 12:39:13;;;;;;;28.00;14.60;;;;;4.30;102784.00;;;;9773447;30;20752;-82
2024/01/12 12:44:14;;;;;;;33.17;15.93;;;;;4.20;102782.00;;;;9768436;30;20233;-80
2024/01/12 12:49:15;;;;;;;40.17;14.97;;;;;4.30;102767.00;;;;9757489;30;20240;-79
2024/01/12 12:54:17;;;;;;;32.40;15.53;;;;;4.20;102760.00;;;;9747654;30;20237;-79
2024/01/12 12:59:18;;;;;;;40.87;16.37;;;;;4.00;102763.00;;;;9753811;30;20320;-78
2024/01/12 13:04:19;;;;;;;37.50;15.73;;;;;3.90;102762.00;;;;9762487;30;20242;-79
2024/01/12 13:09:20;;;;;;;37.50;17.47;;;;;4.00;102749.00;;;;9768157;30;20397;-79
2024/01/12 13:14:23;;;;;;;37.03;15.77;;;;;4.00;102758.00;;;;9750341;30;20256;-79
2024/01/12 13:19:24;;;;;;;40.37;15.60;;;;;3.90;102741.00;;;;9756693;30;20323;-79
2024/01/12 13:24:30;;;;;;;34.27;15.80;;;;;3.90;102731.00;;;;9750570;30;20237;-79
2024/01/12 13:29:31;;;;;;;36.20;15.60;;;;;4.00;102734.00;;;;9753564;30;20336;-79
2024/01/12 13:34:33;;;;;;;34.97;16.13;;;;;4.00;102739.00;;;;9765746;30;20354;-78
2024/01/12 13:39:34;;;;;;;38.10;16.00;;;;;4.00;102730.00;;;;9767997;30;20240;-79
2024/01/12 13:44:35;;;;;;;29.97;15.43;;;;;4.00;102722.00;;;;9778816;30;20233;-78
2024/01/12 13:49:37;;;;;;;38.07;16.97;;;;;4.00;102720.00;;;;9766006;30;20611;-79
2024/01/12 13:54:38;;;;;;;35.87;14.97;;;;;4.00;102718.00;;;;9770094;30;20229;-84
2024/01/12 13:59:39;;;;;;;38.17;15.17;;;;;3.80;102720.00;;;;9780411;30;20246;-82
2024/01/12 14:04:41;;;;;;;37.30;15.50;;;;;3.70;102726.00;;;;9755114;30;20240;-83
2024/01/12 14:09:42;;;;;;;30.10;16.23;;;;;3.60;102708.00;;;;9770628;30;20267;-84
2024/01/12 14:14:43;;;;;;;29.20;14.07;;;;;3.50;102716.00;;;;9766067;30;20245;-84
2024/01/12 14:19:44;;;;;;;29.50;15.30;;;;;3.40;102706.00;;;;9775023;30;20241;-83
2024/01/12 14:24:48;;;;;;;37.60;18.53;;;;;3.40;102700.00;;;;9749330;30;20230;-84
2024/01/12 14:29:50;;;;;;;38.07;16.83;;;;;3.40;102698.00;;;;9766233;30;20264;-84
2024/01/12 14:34:55;;;;;;;35.10;17.93;;;;;3.40;102686.00;;;;9753250;30;20225;-84
2024/01/12 14:39:57;;;;;;;29.40;16.33;;;;;3.40;102676.00;;;;9758203;30;20233;-83
2024/01/12 14:44:58;;;;;;;31.97;15.37;;;;;3.40;102669.00;;;;9753720;30;20233;-84
2024/01/12 14:50:00;;;;;;;32.20;16.63;;;;;3.40;102678.00;;;;9752006;30;20333;-83
2024/01/12 14:55:02;;;;;;;35.13;16.37;;;;;3.30;102673.00;;;;9768287;30;20824;-83
2024/01/12 15:00:08;;;;;;;33.50;16.27;;;;;3.30;102664.00;;;;9730980;30;20236;-84
2024/01/12 15:05:11;;;;;;;35.57;17.67;;;;;3.30;102656.00;;;;9743570;30;20325;-84
2024/01/12 15:10:12;;;;;;;30.93;16.00;;;;;3.30;102658.00;;;;9737102;30;20972;-78
2024/01/12 15:15:13;;;;;;;46.07;20.80;;;;;3.20;102663.00;;;;9743551;30;20761;-78
2024/01/12 15:20:15;;;;;;;37.90;16.07;;;;;3.20;102666.00;;;;9754411;30;20248;-80
2024/01/12 15:25:16;;;;;;;33.00;16.53;;;;;3.10;102659.00;;;;9748844;30;20905;-81
2024/01/12 15:30:17;;;;;;;38.10;15.50;;;;;3.10;102668.00;;;;9736063;30;20241;-81
2024/01/12 15:35:18;;;;;;;32.30;15.17;;;;;3.10;102664.00;;;;9734952;30;20249;-81
2024/01/12 15:40:20;;;;;;;34.27;16.53;;;;;3.00;102675.00;;;;9751739;30;20376;-81
2024/01/12 15:45:22;;;;;;;36.07;18.43;;;;;3.00;102678.00;;;;9748984;30;20249;-81
2024/01/12 15:50:23;;;;;;;27.83;16.57;;;;;3.00;102677.00;;;;9750111;30;20245;-80
2024/01/12 15:55:24;;;;;;;38.47;16.60;;;;;3.00;102675.00;;;;9749926;30;20229;-80
2024/01/12 16:00:25;;;;;;;33.13;17.03;;;;;2.90;102685.00;;;;9754650;30;20781;-81
2024/01/12 16:05:26;;;;;;;38.17;16.30;;;;;2.90;102682.00;;;;9745177;30;20233;-80
2024/01/12 16:10:28;;;;;;;28.23;16.20;;;;;2.90;102682.00;;;;9748267;30;21335;-80
2024/01/12 16:15:29;;;;;;;28.00;15.33;;;;;2.80;102682.00;;;;9764369;30;20326;-80
2024/01/12 16:20:30;;;;;;;32.97;18.20;;;;;2.80;102675.00;;;;9754188;30;20303;-80
2024/01/12 16:25:31;;;;;;;32.43;17.27;;;;;2.80;102668.00;;;;9734906;30;20907;-82
2024/01/12 16:30:34;;;;;;;33.97;17.63;;;;;2.80;102659.00;;;;9776146;30;20226;-78
2024/01/12 16:35:35;;;;;;;35.47;17.77;;;;;2.80;102660.00;;;;9762837;30;20772;-77
2024/01/12 16:40:36;;;;;;;37.90;19.13;;;;;2.80;102654.00;;;;9773010;30;20245;-77
2024/01/12 16:45:39;;;;;;;43.13;20.10;;;;;2.70;102662.00;;;;9760709;30;20233;-78
2024/01/12 16:50:40;;;;;;;30.30;16.97;;;;;2.70;102662.00;;;;9769561;30;20245;-80
2024/01/12 16:55:41;;;;;;;32.90;18.97;;;;;2.70;102660.00;;;;9755164;30;20230;-79
2024/01/12 17:00:42;;;;;;;43.73;18.43;;;;;2.70;102661.00;;;;9746007;30;20238;-78
2024/01/12 17:05:44;;;;;;;32.20;18.30;;;;;2.60;102670.00;;;;9756556;30;20238;-78
2024/01/12 17:10:45;;;;;;;41.93;19.37;;;;;2.60;102669.00;;;;9750607;30;20637;-78
2024/01/12 17:15:47;;;;;;;41.17;22.77;;;;;2.60;102663.00;;;;9742395;30;20250;-79
2024/01/12 17:20:48;;;;;;;40.67;20.87;;;;;2.60;102657.00;;;;9749020;30;20329;-79
2024/01/12 17:25:50;;;;;;;40.17;20.43;;;;;2.60;102652.00;;;;9755222;30;20274;-80
2024/01/12 17:30:51;;;;;;;35.07;18.43;;;;;2.60;102650.00;;;;9732712;30;20263;-78
2024/01/12 17:35:52;;;;;;;41.27;17.37;;;;;2.60;102650.00;;;;9759032;30;20233;-79
2024/01/12 17:40:53;;;;;;;43.40;18.77;;;;;2.60;102631.00;;;;9775319;30;20497;-84
2024/01/12 17:45:55;;;;;;;42.37;20.60;;;;;2.60;102633.00;;;;9767354;30;20280;-83
2024/01/12 17:50:56;;;;;;;42.67;17.07;;;;;2.60;102632.00;;;;9756819;30;20263;-84
2024/01/12 17:56:04;;;;;;;28.57;15.50;;;;;2.60;102638.00;;;;9749813;30;20245;-83
2024/01/12 18:01:08;;;;;;;29.10;14.13;;;;;2.60;102623.00;;;;9759489;30;20250;-84
2024/01/12 18:06:12;;;;;;;28.27;15.53;;;;;2.60;102631.00;;;;9790041;30;20332;-83
2024/01/12 18:11:39;;;;;;;39.77;18.53;;;;;2.60;102641.00;;;;9774595;30;20243;-83
2024/01/12 18:16:41;;;;;;;31.90;16.70;;;;;2.60;102644.00;;;;9757784;30;20259;-83
2024/01/12 18:21:44;;;;;;;39.53;16.67;;;;;2.60;102633.00;;;;9780950;30;20241;-86
2024/01/12 18:26:45;;;;;;;40.80;18.33;;;;;2.60;102642.00;;;;9779547;30;20242;-87
2024/01/12 18:31:46;;;;;;;35.77;17.13;;;;;2.60;102642.00;;;;9795699;30;20266;-83
2024/01/12 18:36:48;;;;;;;29.37;14.67;;;;;2.60;102630.00;;;;9782421;30;20363;-86
2024/01/12 18:41:49;;;;;;;40.47;15.57;;;;;2.60;102627.00;;;;9772333;30;20233;-84
2024/01/12 18:46:50;;;;;;;33.03;15.93;;;;;2.70;102624.00;;;;9817858;30;20260;-84
2024/01/12 18:51:51;;;;;;;30.77;16.83;;;;;2.70;102640.00;;;;9761998;30;20263;-81
2024/01/12 18:56:52;;;;;;;29.07;16.67;;;;;2.70;102635.00;;;;9750974;30;20237;-78
2024/01/12 19:01:54;;;;;;;34.23;16.50;;;;;2.70;102639.00;;;;9767805;30;20247;-80
2024/01/12 19:06:56;;;;;;;39.37;16.63;;;;;2.70;102635.00;;;;9754704;30;20246;-80
2024/01/12 19:11:57;;;;;;;31.37;17.67;;;;;2.70;102634.00;;;;9758915;30;20237;-79
2024/01/12 19:16:59;;;;;;;33.67;15.60;;;;;2.80;102643.00;;;;9749296;30;20609;-79
2024/01/12 19:22:01;;;;;;;39.90;18.43;;;;;2.80;102640.00;;;;9766838;30;20248;-80
2024/01/12 19:27:02;;;;;;;44.97;20.13;;;;;2.70;102640.00;;;;9765653;30;20309;-79
2024/01/12 19:32:11;;;;;;;39.63;19.47;;;;;2.70;102627.00;;;;9750542;30;20618;-80
2024/01/12 19:37:12;;;;;;;40.33;18.33;;;;;2.70;102630.00;;;;9764206;30;20316;-79
2024/01/12 19:42:13;;;;;;;31.93;18.10;;;;;2.70;102625.00;;;;9730151;30;20261;-83
2024/01/12 19:47:17;;;;;;;38.83;17.93;;;;;2.70;102609.00;;;;9763155;30;20242;-80
2024/01/12 19:52:18;;;;;;;37.90;16.77;;;;;2.70;102612.00;;;;9747124;30;20276;-80
2024/01/12 19:57:19;;;;;;;35.77;17.60;;;;;2.70;102605.00;;;;9775924;30;20969;-80
2024/01/12 20:02:22;;;;;;;31.97;17.37;;;;;2.70;102609.00;;;;9744540;30;20241;-86
2024/01/12 20:07:23;;;;;;;38.33;17.70;;;;;2.70;102598.00;;;;9757462;30;20320;-86
2024/01/12 20:12:29;;;;;;;38.03;16.63;;;;;2.70;102586.00;;;;9756195;30;20234;-86
2024/01/12 20:17:31;;;;;;;28.87;16.90;;;;;2.80;102589.00;;;;9736194;30;20233;-87
2024/01/12 20:22:32;;;;;;;36.53;18.50;;;;;2.80;102588.00;;;;9760402;30;20293;-84
2024/01/12 20:27:33;;;;;;;43.47;18.80;;;;;2.80;102571.00;;;;9768011;30;21109;-84
2024/01/12 20:32:34;;;;;;;32.57;16.87;;;;;2.70;102567.00;;;;9785183;30;20233;-85
2024/01/12 20:37:36;;;;;;;37.47;18.43;;;;;2.70;102565.00;;;;9783762;30;20543;-86
2024/01/12 20:42:37;;;;;;;36.93;19.77;;;;;2.70;102568.00;;;;9740770;30;20337;-85
2024/01/12 20:47:38;;;;;;;43.43;19.00;;;;;2.80;102561.00;;;;9757595;30;20233;-85
2024/01/12 20:52:39;;;;;;;36.57;19.80;;;;;2.80;102573.00;;;;9758906;30;20237;-83
2024/01/12 20:57:41;;;;;;;43.50;22.93;;;;;2.80;102564.00;;;;9751360;30;20244;-86
2024/01/12 21:02:42;;;;;;;52.07;31.90;;;;;2.90;102559.00;;;;9737131;30;20262;-85
2024/01/12 21:07:43;;;;;;;54.20;33.33;;;;;2.90;102551.00;;;;9758610;30;20233;-85
2024/01/12 21:12:44;;;;;;;44.43;25.50;;;;;3.00;102544.00;;;;9752964;30;20800;-84
2024/01/12 21:17:46;;;;;;;46.77;22.30;;;;;3.00;102546.00;;;;9754154;30;20857;-85
2024/01/12 21:22:49;;;;;;;42.23;21.90;;;;;3.00;102544.00;;;;9750881;30;20486;-87
2024/01/12 21:27:50;;;;;;;38.97;22.97;;;;;3.00;102545.00;;;;9758367;30;20308;-87
2024/01/12 21:32:51;;;;;;;43.77;22.40;;;;;3.00;102541.00;;;;9763689;30;20324;-85
2024/01/12 21:37:53;;;;;;;38.03;22.70;;;;;3.00;102530.00;;;;9764202;30;20312;-87
2024/01/12 21:42:56;;;;;;;40.80;22.83;;;;;3.00;102534.00;;;;9757763;30;20920;-84
2024/01/12 21:47:57;;;;;;;37.47;20.43;;;;;3.00;102537.00;;;;9749478;30;20575;-84
2024/01/12 21:52:58;;;;;;;39.47;21.13;;;;;3.00;102536.00;;;;9741862;30;20272;-83
2024/01/12 21:58:04;;;;;;;42.33;21.37;;;;;3.00;102519.00;;;;9765069;30;20257;-86
2024/01/12 22:03:06;;;;;;;41.80;21.67;;;;;3.00;102506.00;;;;9773414;30;20323;-85
2024/01/12 22:08:07;;;;;;;43.53;22.37;;;;;2.90;102504.00;;;;9746947;30;20294;-84
2024/01/12 22:13:08;;;;;;;41.33;21.97;;;;;2.90;102508.00;;;;9751671;30;20238;-86
2024/01/12 22:18:13;;;;;;;37.20;21.83;;;;;2.90;102510.00;;;;9725890;30;20669;-85
2024/01/12 22:23:14;;;;;;;39.40;20.40;;;;;2.80;102499.00;;;;9735101;30;20229;-82
2024/01/12 22:28:16;;;;;;;39.53;21.40;;;;;2.80;102500.00;;;;9746719;30;20740;-81
2024/01/12 22:33:17;;;;;;;40.20;20.50;;;;;2.80;102487.00;;;;9748105;30;21492;-80
2024/01/12 22:38:19;;;;;;;45.20;22.53;;;;;2.80;102478.00;;;;9736830;30;20237;-80
2024/01/12 22:43:20;;;;;;;38.73;21.33;;;;;2.80;102484.00;;;;9753955;30;20249;-82
2024/01/12 22:48:21;;;;;;;35.07;20.17;;;;;2.70;102470.00;;;;9769237;30;20230;-82
2024/01/12 22:53:22;;;;;;;38.63;22.13;;;;;2.70;102467.00;;;;9765494;30;20239;-79
2024/01/12 22:58:24;;;;;;;35.27;21.23;;;;;2.70;102457.00;;;;9748327;30;21949;-79
2024/01/12 23:03:29;;;;;;;38.87;22.57;;;;;2.70;102461.00;;;;9733494;30;20657;-80
2024/01/12 23:08:34;;;;;;;41.23;22.13;;;;;2.70;102468.00;;;;9776862;30;20802;-81
2024/01/12 23:13:39;;;;;;;32.70;19.93;;;;;2.80;102449.00;;;;9752490;30;20233;-80
2024/01/12 23:18:43;;;;;;;34.83;19.97;;;;;2.80;102454.00;;;;9758001;30;20272;-80
2024/01/12 23:23:56;;;;;;;32.27;20.37;;;;;2.80;102458.00;;;;9750203;30;20241;-81
2024/01/12 23:29:05;;;;;;;33.20;20.20;;;;;2.80;102435.00;;;;9750295;30;20923;-80
2024/01/12 23:34:11;;;;;;;38.03;20.63;;;;;2.80;102440.00;;;;9761737;30;20238;-78
2024/01/12 23:39:18;;;;;;;36.83;21.17;;;;;2.80;102433.00;;;;9777295;30;20244;-77
2024/01/12 23:44:23;;;;;;;40.00;21.20;;;;;2.80;102419.00;;;;9760945;30;20764;-79
2024/01/12 23:49:26;;;;;;;39.53;21.23;;;;;2.80;102428.00;;;;9751953;30;20324;-79
2024/01/12 23:54:30;;;;;;;40.37;21.40;;;;;2.80;102423.00;;;;9763958;30;20327;-79
2024/01/12 23:59:37;;;;;;;40.17;21.30;;;;;2.80;102425.00;;;;9758628;30;20762;-75
